Time;durP1;ratioP1;P1;durP2;ratioP2;P2;SDS_P1;SDS_P2;PMS_P1;PMS_P2;Temp;Humidity;BMP_temperature;BMP_pressure;BME280_temperature;BME280_humidity;BME280_pressure;Samples;Min_cycle;Max_cycle;Signal;HPM_P1;HPM_P2
2023/06/29 00:00:58;;;;;;;12.68;9.77;;;24.20;63.80;;;;;;4989562;28;20038;-56
2023/06/29 00:03:25;;;;;;;11.07;9.65;;;24.20;63.40;;;;;;4987574;28;20523;-50
2023/06/29 00:05:55;;;;;;;11.52;9.70;;;24.20;63.40;;;;;;4991485;28;20050;-50
2023/06/29 00:08:26;;;;;;;15.35;9.93;;;24.20;63.40;;;;;;4991267;28;20052;-51
2023/06/29 00:10:53;;;;;;;13.57;10.10;;;24.20;63.30;;;;;;4987968;28;20203;-50
2023/06/29 00:13:22;;;;;;;16.33;12.10;;;24.20;63.30;;;;;;4992197;28;20042;-50
2023/06/29 00:15:51;;;;;;;15.95;11.90;;;24.10;63.10;;;;;;4991521;28;20081;-50
2023/06/29 00:18:19;;;;;;;14.23;11.10;;;24.10;63.10;;;;;;4979730;28;20030;-51
2023/06/29 00:20:51;;;;;;;12.65;10.10;;;24.20;63.30;;;;;;4989355;28;20410;-52
2023/06/29 00:23:17;;;;;;;13.13;10.65;;;24.10;63.40;;;;;;4988275;28;20039;-50
2023/06/29 00:25:49;;;;;;;15.50;10.85;;;24.10;63.40;;;;;;4989287;28;20102;-51
2023/06/29 00:28:19;;;;;;;15.60;11.05;;;24.10;63.30;;;;;;4980791;28;20133;-50
2023/06/29 00:30:48;;;;;;;14.80;11.82;;;24.00;63.20;;;;;;4987861;28;20455;-50
2023/06/29 00:33:15;;;;;;;14.65;11.27;;;24.10;63.20;;;;;;4990498;28;20047;-52
2023/06/29 00:35:47;;;;;;;16.67;12.32;;;24.00;63.20;;;;;;4990718;28;20033;-50
2023/06/29 00:38:14;;;;;;;13.68;11.77;;;24.00;63.40;;;;;;4976577;28;20530;-51
2023/06/29 00:40:51;;;;;;;14.68;11.38;;;24.00;63.30;;;;;;4989997;28;20050;-50
2023/06/29 00:43:18;;;;;;;17.83;11.50;;;24.00;63.40;;;;;;4991740;28;20042;-52
2023/06/29 00:45:44;;;;;;;16.27;11.27;;;24.00;63.50;;;;;;4986033;28;20603;-51
2023/06/29 00:48:14;;;;;;;13.32;10.60;;;24.00;63.50;;;;;;4972271;28;20054;-54
2023/06/29 00:50:42;;;;;;;12.55;10.70;;;24.00;64.30;;;;;;4989252;28;20396;-50
2023/06/29 00:53:16;;;;;;;12.68;10.43;;;24.00;63.70;;;;;;4987027;28;20567;-50
2023/06/29 00:55:43;;;;;;;12.75;10.65;;;24.00;63.90;;;;;;4989211;28;20057;-51
2023/06/29 00:58:13;;;;;;;15.48;12.00;;;23.90;63.60;;;;;;4990175;28;20050;-52
2023/06/29 01:00:44;;;;;;;13.73;11.75;;;23.90;63.60;;;;;;4987193;28;20066;-52
2023/06/29 01:03:14;;;;;;;12.43;11.13;;;23.90;63.40;;;;;;4990079;28;20435;-51
2023/06/29 01:05:41;;;;;;;17.42;12.23;;;23.90;63.50;;;;;;4990618;28;20054;-51
2023/06/29 01:08:17;;;;;;;13.30;11.48;;;23.90;63.40;;;;;;4989806;28;20050;-50
2023/06/29 01:10:47;;;;;;;15.93;11.63;;;23.90;63.50;;;;;;4986031;28;20082;-51
2023/06/29 01:13:17;;;;;;;14.48;11.25;;;23.80;63.50;;;;;;4976840;28;20140;-50
2023/06/29 01:15:46;;;;;;;14.32;11.70;;;23.90;63.70;;;;;;4988341;28;20112;-52
2023/06/29 01:18:16;;;;;;;13.30;10.88;;;23.90;63.90;;;;;;4988454;28;20916;-50
2023/06/29 01:20:49;;;;;;;13.82;10.55;;;23.80;63.80;;;;;;4987242;28;20506;-51
2023/06/29 01:23:28;;;;;;;11.75;10.50;;;23.80;64.10;;;;;;4981597;28;20144;-51
2023/06/29 01:26:00;;;;;;;13.27;11.15;;;23.80;64.20;;;;;;4987732;28;20077;-51
2023/06/29 01:28:28;;;;;;;14.65;11.75;;;23.80;64.10;;;;;;4987230;28;20050;-50
2023/06/29 01:31:02;;;;;;;14.13;11.45;;;23.80;64.10;;;;;;4985808;28;20137;-50
2023/06/29 01:33:30;;;;;;;14.10;11.43;;;23.80;64.30;;;;;;4989100;28;20096;-51
2023/06/29 01:36:31;;;;;;;14.73;11.90;;;23.80;64.20;;;;;;4992851;28;20132;-54
2023/06/29 01:39:07;;;;;;;15.23;11.02;;;23.80;64.70;;;;;;4983765;28;20043;-51
2023/06/29 01:41:40;;;;;;;13.25;11.35;;;23.80;64.70;;;;;;4989475;28;20057;-51
2023/06/29 01:44:14;;;;;;;15.70;11.02;;;23.80;64.70;;;;;;4988269;28;20054;-52
2023/06/29 01:46:43;;;;;;;12.38;10.43;;;23.80;64.60;;;;;;4986978;28;20081;-50
2023/06/29 01:49:12;;;;;;;13.05;10.68;;;23.80;64.30;;;;;;4987965;28;20051;-52
2023/06/29 01:51:46;;;;;;;13.93;10.20;;;23.70;64.40;;;;;;4989093;28;20046;-51
2023/06/29 01:54:12;;;;;;;14.38;11.07;;;23.70;64.50;;;;;;4985032;28;20067;-51
2023/06/29 01:56:49;;;;;;;12.07;10.68;;;23.70;64.60;;;;;;4989679;28;20038;-54
2023/06/29 01:59:19;;;;;;;12.18;9.85;;;23.70;64.50;;;;;;4988142;28;20046;-50
2023/06/29 02:01:47;;;;;;;15.20;11.73;;;23.70;64.60;;;;;;4985662;28;22445;-51
2023/06/29 02:04:16;;;;;;;13.10;11.07;;;23.70;64.60;;;;;;4987746;28;20050;-52
2023/06/29 02:06:46;;;;;;;13.85;11.40;;;23.70;64.60;;;;;;4990384;28;20054;-50
2023/06/29 02:09:15;;;;;;;13.25;10.73;;;23.70;64.60;;;;;;4988917;28;20124;-51
2023/06/29 02:11:46;;;;;;;11.90;9.85;;;23.70;64.70;;;;;;4984740;28;20482;-51
2023/06/29 02:14:17;;;;;;;14.57;11.50;;;23.70;64.90;;;;;;4988411;28;20046;-53
2023/06/29 02:16:47;;;;;;;12.07;9.98;;;23.60;64.70;;;;;;4989738;28;20053;-52
2023/06/29 02:19:18;;;;;;;17.05;11.55;;;23.60;64.90;;;;;;4986724;28;20553;-51
2023/06/29 02:21:44;;;;;;;13.88;11.18;;;23.70;64.70;;;;;;4989994;28;20696;-50
2023/06/29 02:24:11;;;;;;;16.02;10.68;;;23.70;64.80;;;;;;4984165;28;20046;-52
2023/06/29 02:26:40;;;;;;;14.75;11.05;;;23.60;64.60;;;;;;4985058;28;20054;-50
2023/06/29 02:29:14;;;;;;;13.00;11.00;;;23.60;64.70;;;;;;4980335;28;20046;-51
2023/06/29 02:31:43;;;;;;;13.53;11.17;;;23.60;64.70;;;;;;4988531;28;20633;-51
2023/06/29 02:34:14;;;;;;;13.45;10.23;;;23.60;64.60;;;;;;4987185;28;20741;-52
2023/06/29 02:36:41;;;;;;;14.98;10.93;;;23.60;64.80;;;;;;4987852;28;20054;-51
2023/06/29 02:39:07;;;;;;;12.90;10.20;;;23.60;64.80;;;;;;4980322;28;20043;-51
2023/06/29 02:41:34;;;;;;;15.68;12.30;;;23.70;64.90;;;;;;4988469;28;20108;-53
2023/06/29 02:44:06;;;;;;;13.15;11.27;;;23.60;64.90;;;;;;4982825;28;20050;-53
2023/06/29 02:46:36;;;;;;;14.32;10.82;;;23.70;64.80;;;;;;4989147;28;20074;-53
2023/06/29 02:49:05;;;;;;;13.05;11.20;;;23.60;64.80;;;;;;5015943;22;20066;31
2023/06/29 02:51:35;;;;;;;15.38;11.52;;;23.60;64.70;;;;;;5009755;28;20065;-51
2023/06/29 02:54:12;;;;;;;11.60;9.25;;;23.70;64.90;;;;;;5006089;28;20046;-50
2023/06/29 02:56:43;;;;;;;16.38;11.38;;;23.60;64.90;;;;;;5012508;28;20486;-50
2023/06/29 02:59:11;;;;;;;14.77;12.13;;;23.60;64.90;;;;;;5011318;28;20134;-49
2023/06/29 03:01:38;;;;;;;14.57;11.45;;;23.60;64.90;;;;;;5009940;28;20038;-51
2023/06/29 03:04:21;;;;;;;15.65;11.07;;;23.60;65.00;;;;;;5010633;28;20056;-49
2023/06/29 03:06:47;;;;;;;14.03;11.23;;;23.70;65.40;;;;;;5012491;28;20729;-51
2023/06/29 03:09:17;;;;;;;15.70;10.93;;;23.70;65.00;;;;;;5009512;28;20039;-47
2023/06/29 03:11:46;;;;;;;13.07;11.05;;;23.60;65.10;;;;;;5013016;28;20092;-50
2023/06/29 03:14:16;;;;;;;13.93;11.52;;;23.60;65.30;;;;;;5012745;28;20705;-49
2023/06/29 03:16:42;;;;;;;14.63;10.98;;;23.60;65.30;;;;;;5013092;28;20505;-48
2023/06/29 03:19:19;;;;;;;12.75;10.63;;;23.60;65.40;;;;;;5012214;28;20053;-49
2023/06/29 03:21:46;;;;;;;17.80;12.40;;;23.60;65.50;;;;;;5008397;28;20042;-48
2023/06/29 03:24:12;;;;;;;13.18;9.93;;;23.60;65.50;;;;;;5007343;28;20089;-48
2023/06/29 03:26:42;;;;;;;11.77;10.57;;;23.60;65.60;;;;;;5012736;28;20121;-48
2023/06/29 03:29:10;;;;;;;15.98;10.80;;;23.60;65.60;;;;;;5011826;28;20069;-49
2023/06/29 03:31:41;;;;;;;13.93;10.25;;;23.60;65.50;;;;;;5008216;28;20036;-49
2023/06/29 03:34:10;;;;;;;13.18;10.95;;;23.60;65.70;;;;;;5012284;28;20077;-48
2023/06/29 03:36:37;;;;;;;13.05;10.23;;;23.60;65.80;;;;;;5013180;28;20461;-51
2023/06/29 03:39:06;;;;;;;14.60;11.43;;;23.50;65.80;;;;;;5012003;28;20034;-50
2023/06/29 03:41:37;;;;;;;13.15;10.63;;;23.60;66.00;;;;;;5006660;28;20041;-49
2023/06/29 03:44:03;;;;;;;12.68;10.27;;;23.60;66.00;;;;;;5019599;28;20041;-49
2023/06/29 03:46:30;;;;;;;14.27;10.43;;;23.50;66.00;;;;;;5012339;28;20133;-52
2023/06/29 03:48:59;;;;;;;14.32;11.50;;;23.50;66.10;;;;;;5007066;28;20070;-50
2023/06/29 03:51:29;;;;;;;13.77;11.00;;;23.50;66.20;;;;;;5013658;28;20045;-51
2023/06/29 03:54:00;;;;;;;12.68;10.15;;;23.50;66.30;;;;;;5006915;28;20141;-51
2023/06/29 03:56:31;;;;;;;14.17;11.07;;;23.50;66.40;;;;;;5012038;28;20042;-48
2023/06/29 03:59:00;;;;;;;13.05;10.70;;;23.50;66.50;;;;;;5010770;28;20045;-52
2023/06/29 04:01:26;;;;;;;12.73;10.35;;;23.50;66.30;;;;;;5011767;28;20069;-51
2023/06/29 04:04:00;;;;;;;13.73;10.38;;;23.50;66.40;;;;;;5007122;28;20409;-51
2023/06/29 04:06:29;;;;;;;13.10;9.88;;;23.50;66.40;;;;;;5020425;28;20461;-51
2023/06/29 04:08:56;;;;;;;15.27;10.98;;;23.50;66.70;;;;;;5011699;28;20050;-51
2023/06/29 04:11:22;;;;;;;12.07;9.93;;;23.50;66.50;;;;;;5009021;28;20089;-50
2023/06/29 04:13:53;;;;;;;14.48;11.18;;;23.50;66.40;;;;;;5011740;28;20044;-51
2023/06/29 04:16:19;;;;;;;13.60;11.50;;;23.50;66.40;;;;;;5011547;28;20069;-51
2023/06/29 04:18:46;;;;;;;14.15;10.77;;;23.50;66.40;;;;;;5010787;28;20096;-51
2023/06/29 04:21:13;;;;;;;15.60;10.38;;;23.50;66.40;;;;;;5011800;28;20037;-52
2023/06/29 04:23:42;;;;;;;15.02;12.05;;;23.50;66.40;;;;;;5007842;28;20534;-51
2023/06/29 04:26:10;;;;;;;13.93;10.35;;;23.50;66.40;;;;;;5009242;28;20049;-52
2023/06/29 04:28:44;;;;;;;12.98;10.98;;;23.50;66.70;;;;;;5011521;28;20100;-52
2023/06/29 04:31:11;;;;;;;16.15;10.82;;;23.50;66.80;;;;;;5010524;28;20085;-52
2023/06/29 04:33:38;;;;;;;13.93;11.38;;;23.60;66.90;;;;;;5009317;28;20034;-52
2023/06/29 04:36:05;;;;;;;16.02;11.77;;;23.60;66.90;;;;;;5010977;28;20490;-50
2023/06/29 04:38:32;;;;;;;15.55;11.40;;;23.60;66.80;;;;;;5008453;28;20030;-51
2023/06/29 04:41:05;;;;;;;16.10;12.02;;;23.60;67.50;;;;;;5011737;28;20068;-50
2023/06/29 04:43:32;;;;;;;16.25;11.80;;;23.60;66.80;;;;;;5011043;28;20107;-49
2023/06/29 04:46:03;;;;;;;14.25;12.02;;;23.60;66.80;;;;;;5011215;28;20050;-52
2023/06/29 04:48:36;;;;;;;13.25;10.93;;;23.70;67.00;;;;;;5006588;28;20056;-52
2023/06/29 04:51:06;;;;;;;15.30;11.85;;;23.70;66.70;;;;;;5010822;28;20038;-50
2023/06/29 04:53:34;;;;;;;13.82;11.65;;;23.70;66.50;;;;;;5004638;28;20038;-51
2023/06/29 04:56:02;;;;;;;19.08;12.45;;;23.70;66.50;;;;;;5010616;28;20406;-50
2023/06/29 04:58:29;;;;;;;14.40;11.02;;;23.70;66.50;;;;;;5010390;28;20038;-52
2023/06/29 05:00:56;;;;;;;16.85;12.55;;;23.80;66.70;;;;;;5008121;28;20038;-51
2023/06/29 05:03:24;;;;;;;15.30;11.05;;;23.80;66.60;;;;;;5003186;28;20061;-51
2023/06/29 05:05:51;;;;;;;16.05;12.05;;;23.80;66.70;;;;;;5004085;28;20042;-52
2023/06/29 05:08:18;;;;;;;16.58;12.30;;;23.80;66.80;;;;;;5009058;28;20045;-49
2023/06/29 05:10:45;;;;;;;15.75;12.30;;;23.80;66.80;;;;;;5009428;28;20049;-51
2023/06/29 05:13:12;;;;;;;18.02;13.60;;;23.80;66.70;;;;;;5009432;28;20068;-51
2023/06/29 05:15:38;;;;;;;17.00;12.77;;;23.90;66.60;;;;;;5005675;28;20033;-50
2023/06/29 05:18:05;;;;;;;16.35;11.95;;;23.90;66.40;;;;;;5007650;28;20070;-51
2023/06/29 05:20:32;;;;;;;16.90;12.38;;;23.90;66.40;;;;;;5000694;28;20045;-52
2023/06/29 05:23:00;;;;;;;17.60;12.25;;;23.90;66.40;;;;;;5005901;28;20049;-52
2023/06/29 05:25:26;;;;;;;19.40;13.68;;;23.90;66.30;;;;;;5004935;28;20469;-51
2023/06/29 05:27:53;;;;;;;18.13;12.60;;;24.00;66.20;;;;;;5008687;28;20042;-51
2023/06/29 05:30:20;;;;;;;16.10;13.25;;;24.00;66.30;;;;;;5005749;28;20103;-49
2023/06/29 05:32:46;;;;;;;20.95;13.13;;;24.00;66.10;;;;;;5004973;28;20087;-50
2023/06/29 05:35:13;;;;;;;19.15;13.02;;;24.00;66.20;;;;;;5007773;28;20041;-52
2023/06/29 05:37:41;;;;;;;18.90;13.73;;;24.10;66.10;;;;;;5007905;28;20042;-52
2023/06/29 05:40:08;;;;;;;16.85;13.02;;;24.10;66.00;;;;;;5007573;28;20661;-51
2023/06/29 05:42:35;;;;;;;17.90;13.38;;;24.20;66.00;;;;;;5001125;28;20103;-52
2023/06/29 05:45:02;;;;;;;16.90;12.80;;;24.20;66.00;;;;;;5009151;28;20125;-52
2023/06/29 05:47:32;;;;;;;15.77;13.10;;;24.30;66.00;;;;;;5003341;28;20184;-52
2023/06/29 05:49:59;;;;;;;20.52;13.35;;;24.30;65.40;;;;;;4999935;28;20050;-51
2023/06/29 05:52:26;;;;;;;17.67;14.43;;;24.40;65.30;;;;;;5008003;28;20101;-52
2023/06/29 05:54:52;;;;;;;16.75;13.38;;;24.50;65.20;;;;;;5005325;28;20554;-52
2023/06/29 05:57:19;;;;;;;19.02;14.20;;;24.50;65.00;;;;;;4998402;28;20043;-51
2023/06/29 05:59:46;;;;;;;18.13;13.77;;;24.60;64.90;;;;;;5007137;28;20162;-52
2023/06/29 06:02:12;;;;;;;18.75;15.05;;;24.70;64.40;;;;;;5004137;28;20052;-51
2023/06/29 06:04:39;;;;;;;18.52;14.38;;;24.70;64.40;;;;;;5008829;28;20042;-51
2023/06/29 06:07:06;;;;;;;17.40;13.90;;;24.80;64.20;;;;;;5008103;28;20046;-49
2023/06/29 06:09:32;;;;;;;17.52;13.00;;;24.80;64.10;;;;;;5004781;28;20046;-51
2023/06/29 06:11:59;;;;;;;20.65;14.55;;;24.80;63.60;;;;;;5008216;28;20066;-51
2023/06/29 06:14:26;;;;;;;17.67;13.82;;;24.80;63.20;;;;;;5008374;28;20104;-51
2023/06/29 06:16:53;;;;;;;15.90;13.57;;;24.90;63.60;;;;;;5004643;28;20128;-52
2023/06/29 06:19:20;;;;;;;16.70;13.63;;;24.90;63.70;;;;;;5008224;28;20045;-52
2023/06/29 06:21:46;;;;;;;19.48;13.77;;;24.90;63.50;;;;;;5011090;28;20061;-52
2023/06/29 06:24:13;;;;;;;17.23;13.93;;;24.90;63.60;;;;;;5009228;28;20145;-52
2023/06/29 06:26:40;;;;;;;18.48;13.35;;;24.90;63.80;;;;;;5012691;28;20617;-49
2023/06/29 06:29:09;;;;;;;19.38;13.55;;;24.90;63.80;;;;;;5010768;28;20117;-50
2023/06/29 06:31:36;;;;;;;19.20;14.10;;;24.90;63.80;;;;;;5012634;28;20069;-52
2023/06/29 06:34:06;;;;;;;17.38;13.82;;;24.90;63.30;;;;;;5012017;28;20084;-51
2023/06/29 06:36:32;;;;;;;16.83;14.23;;;24.90;63.30;;;;;;5013910;28;20148;-52
2023/06/29 06:38:59;;;;;;;16.15;12.77;;;24.90;63.30;;;;;;5008951;28;20045;-49
2023/06/29 06:41:26;;;;;;;18.23;13.65;;;24.80;63.10;;;;;;5011846;28;20061;-48
2023/06/29 06:43:53;;;;;;;18.33;13.77;;;24.90;63.30;;;;;;5013001;28;20062;-47
2023/06/29 06:46:19;;;;;;;18.60;14.23;;;24.90;63.20;;;;;;5011393;28;20108;-51
2023/06/29 06:48:48;;;;;;;18.40;14.27;;;24.90;62.80;;;;;;5007161;28;20073;-47
2023/06/29 06:51:14;;;;;;;21.58;15.02;;;24.90;62.70;;;;;;5011989;28;20121;-52
2023/06/29 06:53:41;;;;;;;18.48;13.90;;;24.90;62.50;;;;;;5008894;28;20494;-49
2023/06/29 06:56:08;;;;;;;17.23;14.18;;;24.90;62.40;;;;;;5012535;28;20034;-51
2023/06/29 06:58:34;;;;;;;17.02;14.02;;;24.90;62.20;;;;;;5012181;28;20029;-52
2023/06/29 07:01:01;;;;;;;18.42;15.32;;;25.00;62.40;;;;;;5012934;28;20038;-52
2023/06/29 07:03:28;;;;;;;17.02;13.65;;;25.00;62.40;;;;;;5005049;28;20462;-51
2023/06/29 07:05:55;;;;;;;17.38;14.27;;;25.00;62.40;;;;;;5012726;28;20038;-50
2023/06/29 07:08:22;;;;;;;16.88;13.30;;;25.10;62.20;;;;;;5012049;28;20038;-51
2023/06/29 07:10:51;;;;;;;19.33;14.75;;;25.10;62.30;;;;;;5012596;28;20064;-52
2023/06/29 07:13:18;;;;;;;18.27;13.02;;;25.10;62.10;;;;;;5008808;28;20037;-51
2023/06/29 07:15:47;;;;;;;18.77;13.30;;;25.20;61.90;;;;;;5011964;28;20112;-52
2023/06/29 07:18:14;;;;;;;18.73;14.70;;;25.20;61.40;;;;;;5011705;28;20033;-52
2023/06/29 07:20:43;;;;;;;20.00;13.77;;;25.20;61.50;;;;;;5010680;28;20116;-52
2023/06/29 07:23:13;;;;;;;17.23;13.13;;;25.30;61.40;;;;;;5007691;28;20406;-52
2023/06/29 07:25:43;;;;;;;19.13;14.73;;;25.30;61.60;;;;;;5004673;28;20034;-52
2023/06/29 07:28:12;;;;;;;18.00;13.80;;;25.40;61.70;;;;;;5011210;28;20050;-51
2023/06/29 07:30:38;;;;;;;18.70;14.63;;;25.40;61.60;;;;;;5012019;28;20040;-52
2023/06/29 07:33:05;;;;;;;16.45;14.15;;;25.50;61.40;;;;;;5004794;28;20050;-52
2023/06/29 07:35:32;;;;;;;18.90;14.55;;;25.50;61.30;;;;;;5010983;28;20052;-51
2023/06/29 07:37:59;;;;;;;18.10;13.70;;;25.50;61.30;;;;;;5011533;28;20125;-52
2023/06/29 07:40:25;;;;;;;20.70;14.38;;;25.60;61.50;;;;;;5009886;28;20111;-51
2023/06/29 07:42:52;;;;;;;21.70;14.30;;;25.70;61.60;;;;;;5010017;28;20046;-52
2023/06/29 07:45:18;;;;;;;16.73;14.57;;;25.80;61.20;;;;;;5011928;28;20495;-51
2023/06/29 07:47:45;;;;;;;20.30;15.20;;;25.80;61.10;;;;;;5010884;28;20764;-51
2023/06/29 07:50:13;;;;;;;20.23;16.17;;;25.90;60.80;;;;;;5004969;28;20038;-52
2023/06/29 07:52:40;;;;;;;22.27;14.95;;;26.00;60.60;;;;;;5011052;28;20042;-52
2023/06/29 07:55:08;;;;;;;21.08;15.70;;;26.10;60.40;;;;;;5009034;28;20080;-51
2023/06/29 07:57:35;;;;;;;21.95;16.58;;;26.20;60.20;;;;;;5010827;28;20412;-49
2023/06/29 08:00:06;;;;;;;20.67;15.27;;;26.30;60.20;;;;;;5011621;28;20092;-50
2023/06/29 08:02:45;;;;;;;20.15;14.60;;;26.40;60.10;;;;;;5010268;28;20778;-52
2023/06/29 08:05:13;;;;;;;25.73;14.38;;;26.40;59.10;;;;;;5007856;28;20041;-52
2023/06/29 08:07:42;;;;;;;26.08;16.40;;;26.50;59.10;;;;;;5011060;28;20038;-51
2023/06/29 08:10:09;;;;;;;19.23;15.60;;;26.50;58.70;;;;;;5006776;28;20049;-52
2023/06/29 08:12:36;;;;;;;19.50;14.43;;;26.60;59.00;;;;;;5011516;28;20052;-52
2023/06/29 08:15:03;;;;;;;18.70;14.82;;;26.70;58.40;;;;;;5010694;28;20463;-52
2023/06/29 08:17:30;;;;;;;17.33;13.60;;;26.70;58.20;;;;;;5009528;28;20046;-48
2023/06/29 08:19:57;;;;;;;19.00;15.30;;;26.80;57.90;;;;;;5002615;28;20037;-51
2023/06/29 08:22:23;;;;;;;19.63;13.93;;;26.90;57.90;;;;;;5011496;28;20077;-50
2023/06/29 08:24:51;;;;;;;17.85;12.80;;;26.90;57.60;;;;;;5006525;28;20149;-49
2023/06/29 08:27:19;;;;;;;21.48;15.25;;;27.00;57.80;;;;;;5011049;28;20045;-51
2023/06/29 08:29:46;;;;;;;15.80;13.65;;;27.10;57.60;;;;;;5010065;28;20492;-52
2023/06/29 08:32:13;;;;;;;19.42;14.70;;;27.10;57.00;;;;;;5007952;28;20099;-50
2023/06/29 08:34:42;;;;;;;17.05;13.40;;;27.20;56.40;;;;;;5010055;28;20068;-52
2023/06/29 08:37:09;;;;;;;18.60;13.95;;;27.30;56.10;;;;;;5010893;28;20410;-49
2023/06/29 08:39:35;;;;;;;16.80;12.60;;;27.30;55.90;;;;;;5008134;28;20042;-51
2023/06/29 08:42:02;;;;;;;18.90;14.77;;;27.40;56.40;;;;;;5005946;28;20042;-49
2023/06/29 08:44:33;;;;;;;19.47;14.37;;;27.50;55.60;;;;;;5010051;28;20042;-51
2023/06/29 08:47:01;;;;;;;19.88;14.65;;;27.50;55.70;;;;;;5003746;28;20080;-50
2023/06/29 08:49:34;;;;;;;21.05;15.82;;;27.60;55.40;;;;;;5004346;28;20046;-50
2023/06/29 08:52:03;;;;;;;18.95;14.05;;;27.60;55.10;;;;;;5010516;28;20088;-52
2023/06/29 08:54:31;;;;;;;19.33;15.45;;;27.70;55.50;;;;;;5006239;28;20468;-52
2023/06/29 08:57:01;;;;;;;21.45;15.75;;;27.70;55.40;;;;;;5010323;28;20058;-49
2023/06/29 08:59:28;;;;;;;18.88;14.20;;;27.80;55.00;;;;;;5010569;28;20041;-51
2023/06/29 09:01:58;;;;;;;20.30;13.93;;;27.90;54.70;;;;;;5009134;28;20487;-52
2023/06/29 09:04:25;;;;;;;21.48;14.68;;;28.00;55.10;;;;;;5009573;28;20046;-52
2023/06/29 09:06:53;;;;;;;17.70;14.27;;;28.00;54.70;;;;;;5009999;28;20566;-51
2023/06/29 09:09:20;;;;;;;20.30;15.00;;;28.10;54.60;;;;;;5008500;28;20312;-52
2023/06/29 09:11:47;;;;;;;21.88;15.27;;;28.20;54.60;;;;;;5006343;28;20045;-52
2023/06/29 09:14:14;;;;;;;17.95;15.95;;;28.20;54.40;;;;;;5010809;28;20037;-51
2023/06/29 09:16:58;;;;;;;22.77;15.32;;;28.20;53.50;;;;;;5010172;28;20690;-50
2023/06/29 09:19:25;;;;;;;20.83;15.85;;;28.30;53.70;;;;;;5004618;28;20125;-48
2023/06/29 09:21:52;;;;;;;18.50;14.77;;;28.30;53.60;;;;;;5009575;28;20084;-52
2023/06/29 09:24:19;;;;;;;18.30;15.40;;;28.30;53.30;;;;;;5003641;28;20211;-49
2023/06/29 09:26:53;;;;;;;19.00;15.05;;;28.40;53.40;;;;;;5009417;28;20096;-52
2023/06/29 09:29:20;;;;;;;18.33;15.18;;;28.40;53.10;;;;;;5009636;28;20049;-47
2023/06/29 09:31:57;;;;;;;21.27;15.45;;;28.50;53.20;;;;;;5001651;28;20045;-51
2023/06/29 09:34:26;;;;;;;18.65;15.05;;;28.50;52.60;;;;;;5007347;28;20046;-52
2023/06/29 09:36:53;;;;;;;18.45;15.15;;;28.50;52.80;;;;;;5010688;28;20029;-50
2023/06/29 09:39:21;;;;;;;20.38;15.07;;;28.50;52.20;;;;;;5008606;28;20077;-51
2023/06/29 09:41:49;;;;;;;17.45;14.20;;;28.50;52.10;;;;;;5008270;28;20065;-51
2023/06/29 09:44:20;;;;;;;19.17;14.93;;;28.50;52.20;;;;;;5009429;28;20046;-51
2023/06/29 09:46:47;;;;;;;23.40;16.15;;;28.40;52.60;;;;;;5009981;28;20124;-54
2023/06/29 09:49:45;;;;;;;17.98;15.60;;;28.40;52.60;;;;;;5009305;28;20422;-52
2023/06/29 09:52:12;;;;;;;18.75;15.38;;;28.40;53.20;;;;;;5006730;28;20046;-52
2023/06/29 09:54:42;;;;;;;17.23;13.60;;;28.40;53.10;;;;;;5005055;28;20383;-52
2023/06/29 09:57:12;;;;;;;18.33;14.20;;;28.50;52.80;;;;;;5003779;28;20038;-50
2023/06/29 09:59:45;;;;;;;17.50;15.32;;;28.50;52.90;;;;;;5009015;28;20073;-52
2023/06/29 10:02:13;;;;;;;19.35;13.85;;;28.60;52.10;;;;;;5007360;28;20121;-52
2023/06/29 10:04:41;;;;;;;18.42;15.27;;;28.60;52.60;;;;;;5006061;28;20054;-49
2023/06/29 10:07:19;;;;;;;16.65;14.30;;;28.70;52.00;;;;;;5009472;28;20096;-52
2023/06/29 10:09:49;;;;;;;17.15;15.10;;;28.70;51.70;;;;;;5009401;28;20044;-50
2023/06/29 10:12:18;;;;;;;16.27;13.65;;;28.80;51.20;;;;;;5005026;28;20057;-51
2023/06/29 10:14:45;;;;;;;19.70;13.52;;;28.80;51.40;;;;;;5008045;28;20065;-50
2023/06/29 10:17:19;;;;;;;17.63;14.55;;;28.90;50.90;;;;;;5008873;28;20046;-52
2023/06/29 10:19:47;;;;;;;22.20;13.32;;;28.90;50.40;;;;;;5008444;28;20042;-51
2023/06/29 10:22:16;;;;;;;17.17;12.55;;;29.00;50.50;;;;;;5001536;28;20104;-51
2023/06/29 10:24:54;;;;;;;17.02;13.75;;;29.00;50.40;;;;;;5002613;28;20049;-49
2023/06/29 10:27:24;;;;;;;14.27;12.13;;;29.00;49.90;;;;;;5009793;28;20046;-51
2023/06/29 10:29:51;;;;;;;17.65;14.05;;;29.10;50.30;;;;;;5008455;28;20033;-51
2023/06/29 10:32:38;;;;;;;16.20;13.35;;;29.10;49.90;;;;;;5006326;28;20077;-50
2023/06/29 10:35:13;;;;;;;16.08;13.73;;;29.20;49.40;;;;;;5010421;28;20045;-52
2023/06/29 10:37:49;;;;;;;17.45;12.77;;;29.30;49.20;;;;;;5005793;28;20042;-53
2023/06/29 10:40:17;;;;;;;16.13;12.65;;;29.30;49.00;;;;;;5009413;28;20120;-48
2023/06/29 10:42:49;;;;;;;13.48;11.40;;;29.40;48.90;;;;;;5008506;28;20069;-51
2023/06/29 10:45:16;;;;;;;14.52;11.13;;;29.50;48.90;;;;;;5002446;28;20104;-50
2023/06/29 10:47:43;;;;;;;15.32;12.00;;;29.60;48.50;;;;;;5008438;28;20076;-50
2023/06/29 10:50:10;;;;;;;14.30;11.43;;;29.60;48.00;;;;;;5008677;28;20061;-50
2023/06/29 10:52:38;;;;;;;14.05;12.27;;;29.70;48.50;;;;;;5008806;28;20125;-49
2023/06/29 10:55:17;;;;;;;14.85;12.40;;;29.80;48.90;;;;;;5005390;28;20495;-52
2023/06/29 10:57:53;;;;;;;16.52;12.38;;;29.80;47.80;;;;;;5009367;28;20084;-52
2023/06/29 11:00:21;;;;;;;15.02;12.38;;;29.90;47.60;;;;;;5008810;28;20077;-50
2023/06/29 11:02:49;;;;;;;15.02;12.10;;;29.90;47.50;;;;;;5007892;28;20038;-51
2023/06/29 11:05:17;;;;;;;14.35;12.75;;;29.90;47.00;;;;;;5006490;28;20499;-52
2023/06/29 11:07:47;;;;;;;15.63;12.20;;;29.80;46.60;;;;;;5010361;28;20066;-52
2023/06/29 11:10:13;;;;;;;12.50;11.20;;;29.80;46.20;;;;;;5012034;28;20462;-51
2023/06/29 11:12:41;;;;;;;12.60;11.27;;;29.70;46.30;;;;;;5008986;28;20045;-52
2023/06/29 11:15:15;;;;;;;13.98;11.63;;;29.60;46.60;;;;;;5012605;28;20077;-52
2023/06/29 11:17:49;;;;;;;16.67;12.43;;;29.50;46.70;;;;;;5008804;28;20049;-52
2023/06/29 11:20:18;;;;;;;19.83;11.93;;;29.40;47.20;;;;;;5007905;28;20113;-50
2023/06/29 11:22:45;;;;;;;14.38;11.27;;;29.30;47.10;;;;;;5010219;28;20044;-49
2023/06/29 11:25:14;;;;;;;14.63;11.55;;;29.20;47.40;;;;;;5011509;28;20042;-52
2023/06/29 11:27:44;;;;;;;15.02;11.38;;;29.20;47.40;;;;;;5002105;28;20049;-50
2023/06/29 11:30:11;;;;;;;16.25;11.48;;;29.10;47.70;;;;;;5002711;28;20062;-48
2023/06/29 11:32:39;;;;;;;16.63;11.20;;;29.20;48.10;;;;;;5005318;28;20067;-53
2023/06/29 11:35:10;;;;;;;15.13;12.57;;;29.10;47.70;;;;;;5001904;28;20038;-52
2023/06/29 11:37:40;;;;;;;14.82;11.40;;;29.10;47.80;;;;;;5003483;28;20042;-51
2023/06/29 11:40:24;;;;;;;13.55;10.95;;;29.10;48.10;;;;;;5024534;28;20392;-52
2023/06/29 11:42:51;;;;;;;14.15;11.68;;;29.10;48.10;;;;;;5009607;28;20049;-51
2023/06/29 11:45:19;;;;;;;12.95;11.57;;;29.10;47.90;;;;;;5002723;28;20559;-49
2023/06/29 11:47:51;;;;;;;14.60;11.57;;;29.10;48.30;;;;;;5006933;28;20574;-52
2023/06/29 11:50:17;;;;;;;13.98;11.77;;;29.10;47.90;;;;;;5004013;28;20045;-50
2023/06/29 11:52:45;;;;;;;14.38;11.00;;;29.10;47.90;;;;;;5000981;28;20046;-51
2023/06/29 11:55:13;;;;;;;12.27;11.00;;;29.00;47.60;;;;;;5006981;28;20061;-49
2023/06/29 11:57:42;;;;;;;15.18;12.02;;;29.00;47.70;;;;;;5012310;28;20074;-51
2023/06/29 12:00:11;;;;;;;12.75;11.43;;;29.00;47.70;;;;;;5011603;28;20038;-51
2023/06/29 12:02:40;;;;;;;14.70;11.77;;;29.00;47.90;;;;;;5003472;28;20470;-51
2023/06/29 12:05:08;;;;;;;14.13;12.25;;;29.00;48.00;;;;;;5007015;28;20072;-51
2023/06/29 12:07:40;;;;;;;13.73;11.40;;;29.10;48.10;;;;;;5012542;28;20442;-50
2023/06/29 12:10:12;;;;;;;12.20;9.98;;;29.20;47.80;;;;;;5010906;28;20508;-52
2023/06/29 12:12:42;;;;;;;14.55;10.23;;;29.20;47.70;;;;;;5006951;28;20467;-52
2023/06/29 12:15:18;;;;;;;11.53;10.13;;;29.30;47.40;;;;;;5010787;28;20049;-52
2023/06/29 12:17:46;;;;;;;12.40;10.15;;;29.30;47.40;;;;;;5011696;28;20276;-52
2023/06/29 12:20:18;;;;;;;12.20;10.10;;;29.40;47.60;;;;;;5008541;28;20038;-52
2023/06/29 12:22:47;;;;;;;10.45;9.45;;;29.50;47.60;;;;;;5008368;28;20117;-52
2023/06/29 12:25:16;;;;;;;12.75;10.07;;;29.50;47.50;;;;;;5006679;28;20038;-52
2023/06/29 12:27:45;;;;;;;11.50;10.07;;;29.60;46.10;;;;;;5011391;28;20127;-52
2023/06/29 12:30:15;;;;;;;12.95;10.45;;;29.70;46.30;;;;;;5025672;28;20049;-50
2023/06/29 12:32:44;;;;;;;11.25;9.52;;;29.70;45.10;;;;;;5005911;28;20050;-52
2023/06/29 12:35:14;;;;;;;11.85;10.45;;;29.80;45.70;;;;;;5010537;28;20145;-52
2023/06/29 12:37:41;;;;;;;12.73;10.95;;;29.80;45.50;;;;;;5005040;28;20033;-52